sensor_id;sensor_type;location;lat;lon;timestamp;pressure;altitude;pressure_sealevel;temperature;humidity
35910;BME280;22004;49.120;-0.200;2022-11-25T00:01:42;100760.69;;;11.12;76.80
35910;BME280;22004;49.120;-0.200;2022-11-25T00:04:08;100759.84;;;11.11;76.50
35910;BME280;22004;49.120;-0.200;2022-11-25T00:06:35;100754.91;;;10.85;74.08
35910;BME280;22004;49.120;-0.200;2022-11-25T00:11:28;100756.75;;;10.85;74.23
35910;BME280;22004;49.120;-0.200;2022-11-25T00:13:54;100761.19;;;10.93;77.60
35910;BME280;22004;49.120;-0.200;2022-11-25T00:16:21;100762.53;;;11.11;76.51
35910;BME280;22004;49.120;-0.200;2022-11-25T00:18:49;100768.09;;;11.10;76.73
35910;BME280;22004;49.120;-0.200;2022-11-25T00:21:17;100774.81;;;10.91;76.79
35910;BME280;22004;49.120;-0.200;2022-11-25T00:23:43;100770.03;;;11.01;76.73
35910;BME280;22004;49.120;-0.200;2022-11-25T00:26:14;100771.06;;;11.15;76.37
35910;BME280;22004;49.120;-0.200;2022-11-25T00:28:41;100774.03;;;10.82;75.03
35910;BME280;22004;49.120;-0.200;2022-11-25T00:31:18;100775.38;;;10.86;76.90
35910;BME280;22004;49.120;-0.200;2022-11-25T00:33:45;100778.00;;;10.49;77.05
35910;BME280;22004;49.120;-0.200;2022-11-25T00:36:20;100779.97;;;10.78;76.41
35910;BME280;22004;49.120;-0.200;2022-11-25T00:38:46;100784.28;;;11.02;76.75
35910;BME280;22004;49.120;-0.200;2022-11-25T00:41:12;100784.91;;;11.04;76.40
35910;BME280;22004;49.120;-0.200;2022-11-25T00:43:57;100787.84;;;10.79;76.14
35910;BME280;22004;49.120;-0.200;2022-11-25T00:46:41;100802.81;;;10.97;75.67
35910;BME280;22004;49.120;-0.200;2022-11-25T00:49:06;100798.94;;;10.99;76.48
35910;BME280;22004;49.120;-0.200;2022-11-25T00:51:32;100804.44;;;10.60;76.28
35910;BME280;22004;49.120;-0.200;2022-11-25T00:53:57;100801.56;;;10.61;75.45
35910;BME280;22004;49.120;-0.200;2022-11-25T00:56:22;100800.00;;;10.90;75.68
35910;BME280;22004;49.120;-0.200;2022-11-25T00:58:48;100807.09;;;10.83;76.33
35910;BME280;22004;49.120;-0.200;2022-11-25T01:01:14;100808.56;;;10.25;74.82
35910;BME280;22004;49.120;-0.200;2022-11-25T01:03:39;100809.09;;;10.89;77.08
35910;BME280;22004;49.120;-0.200;2022-11-25T01:06:09;100805.88;;;10.48;74.13
35910;BME280;22004;49.120;-0.200;2022-11-25T01:08:37;100804.75;;;10.65;77.95
35910;BME280;22004;49.120;-0.200;2022-11-25T01:11:08;100813.78;;;10.64;77.52
35910;BME280;22004;49.120;-0.200;2022-11-25T01:13:34;100812.31;;;10.61;77.48
35910;BME280;22004;49.120;-0.200;2022-11-25T01:16:04;100812.78;;;10.88;76.60
35910;BME280;22004;49.120;-0.200;2022-11-25T01:18:30;100807.34;;;10.73;77.23
35910;BME280;22004;49.120;-0.200;2022-11-25T01:21:11;100808.31;;;10.80;76.82
35910;BME280;22004;49.120;-0.200;2022-11-25T01:23:36;100816.47;;;10.87;75.74
35910;BME280;22004;49.120;-0.200;2022-11-25T01:26:03;100816.25;;;10.74;76.34
35910;BME280;22004;49.120;-0.200;2022-11-25T01:28:29;100831.38;;;10.75;76.53
35910;BME280;22004;49.120;-0.200;2022-11-25T01:31:06;100832.94;;;10.84;76.76
35910;BME280;22004;49.120;-0.200;2022-11-25T01:33:32;100833.16;;;10.59;76.59
35910;BME280;22004;49.120;-0.200;2022-11-25T01:36:20;100845.00;;;10.42;77.79
35910;BME280;22004;49.120;-0.200;2022-11-25T01:38:49;100848.66;;;10.49;76.36
35910;BME280;22004;49.120;-0.200;2022-11-25T01:41:15;100856.75;;;10.64;76.63
35910;BME280;22004;49.120;-0.200;2022-11-25T01:43:40;100856.50;;;9.80;74.36
35910;BME280;22004;49.120;-0.200;2022-11-25T01:46:24;100866.34;;;10.35;78.00
35910;BME280;22004;49.120;-0.200;2022-11-25T01:49:05;100862.59;;;10.45;75.14
35910;BME280;22004;49.120;-0.200;2022-11-25T01:51:41;100862.91;;;10.73;76.85
35910;BME280;22004;49.120;-0.200;2022-11-25T01:54:10;100868.47;;;10.71;76.26
35910;BME280;22004;49.120;-0.200;2022-11-25T01:56:46;100871.00;;;10.42;75.87
35910;BME280;22004;49.120;-0.200;2022-11-25T01:59:13;100870.47;;;9.99;77.89
35910;BME280;22004;49.120;-0.200;2022-11-25T02:01:39;100863.41;;;10.76;76.61
35910;BME280;22004;49.120;-0.200;2022-11-25T02:04:06;100868.00;;;10.37;77.37
35910;BME280;22004;49.120;-0.200;2022-11-25T02:07:04;100869.66;;;10.69;76.77
35910;BME280;22004;49.120;-0.200;2022-11-25T02:09:33;100878.88;;;10.74;76.68
35910;BME280;22004;49.120;-0.200;2022-11-25T02:12:00;100880.69;;;10.74;76.58
35910;BME280;22004;49.120;-0.200;2022-11-25T02:14:26;100884.50;;;10.56;76.34
35910;BME280;22004;49.120;-0.200;2022-11-25T02:16:51;100893.66;;;10.70;76.41
35910;BME280;22004;49.120;-0.200;2022-11-25T02:19:31;100893.16;;;10.67;76.51
35910;BME280;22004;49.120;-0.200;2022-11-25T02:22:04;100893.50;;;10.64;76.50
35910;BME280;22004;49.120;-0.200;2022-11-25T02:24:44;100908.34;;;10.51;76.98
35910;BME280;22004;49.120;-0.200;2022-11-25T02:27:11;100921.13;;;10.49;76.42
35910;BME280;22004;49.120;-0.200;2022-11-25T02:29:37;100916.47;;;10.74;75.98
35910;BME280;22004;49.120;-0.200;2022-11-25T02:32:03;100923.50;;;10.75;75.95
35910;BME280;22004;49.120;-0.200;2022-11-25T02:34:29;100919.81;;;10.45;74.98
35910;BME280;22004;49.120;-0.200;2022-11-25T02:36:54;100935.78;;;10.22;76.45
35910;BME280;22004;49.120;-0.200;2022-11-25T02:39:21;100918.75;;;10.07;76.03
35910;BME280;22004;49.120;-0.200;2022-11-25T02:41:50;100923.91;;;10.17;75.40
35910;BME280;22004;49.120;-0.200;2022-11-25T02:44:16;100930.22;;;10.40;77.02
35910;BME280;22004;49.120;-0.200;2022-11-25T02:46:41;100936.88;;;9.97;75.22
35910;BME280;22004;49.120;-0.200;2022-11-25T02:49:06;100931.13;;;10.16;75.57
35910;BME280;22004;49.120;-0.200;2022-11-25T02:51:32;100941.31;;;9.49;72.99
35910;BME280;22004;49.120;-0.200;2022-11-25T02:53:59;100940.13;;;9.76;77.82
35910;BME280;22004;49.120;-0.200;2022-11-25T02:56:28;100942.81;;;10.23;72.41
35910;BME280;22004;49.120;-0.200;2022-11-25T02:58:54;100944.31;;;9.70;77.26
35910;BME280;22004;49.120;-0.200;2022-11-25T03:01:19;100943.47;;;10.42;75.35
35910;BME280;22004;49.120;-0.200;2022-11-25T03:03:45;100943.34;;;10.35;72.01
35910;BME280;22004;49.120;-0.200;2022-11-25T03:06:10;100947.81;;;8.89;79.57
35910;BME280;22004;49.120;-0.200;2022-11-25T03:08:36;100955.06;;;10.34;77.82
35910;BME280;22004;49.120;-0.200;2022-11-25T03:11:02;100958.13;;;10.62;75.85
35910;BME280;22004;49.120;-0.200;2022-11-25T03:13:27;100955.44;;;10.62;76.19
35910;BME280;22004;49.120;-0.200;2022-11-25T03:15:53;100963.78;;;10.75;74.85
35910;BME280;22004;49.120;-0.200;2022-11-25T03:18:18;100960.41;;;10.73;75.34
35910;BME280;22004;49.120;-0.200;2022-11-25T03:20:44;100959.53;;;10.81;74.84
35910;BME280;22004;49.120;-0.200;2022-11-25T03:23:09;100964.16;;;10.64;75.00
35910;BME280;22004;49.120;-0.200;2022-11-25T03:25:34;100958.66;;;10.57;74.01
35910;BME280;22004;49.120;-0.200;2022-11-25T03:28:00;100965.84;;;10.65;75.02
35910;BME280;22004;49.120;-0.200;2022-11-25T03:30:28;100963.63;;;10.69;75.64
35910;BME280;22004;49.120;-0.200;2022-11-25T03:32:54;100972.97;;;10.81;74.63
35910;BME280;22004;49.120;-0.200;2022-11-25T03:35:20;100983.84;;;10.56;75.43
35910;BME280;22004;49.120;-0.200;2022-11-25T03:37:45;100997.56;;;10.61;73.40
35910;BME280;22004;49.120;-0.200;2022-11-25T03:40:13;101001.84;;;10.79;75.44
35910;BME280;22004;49.120;-0.200;2022-11-25T03:42:39;101006.88;;;10.82;74.02
35910;BME280;22004;49.120;-0.200;2022-11-25T03:45:05;101006.38;;;10.78;74.84
35910;BME280;22004;49.120;-0.200;2022-11-25T03:47:31;101012.31;;;10.66;75.55
35910;BME280;22004;49.120;-0.200;2022-11-25T03:49:56;101019.13;;;10.45;74.53
35910;BME280;22004;49.120;-0.200;2022-11-25T03:52:22;101012.25;;;10.82;74.81
35910;BME280;22004;49.120;-0.200;2022-11-25T03:54:48;101015.44;;;10.77;74.66
35910;BME280;22004;49.120;-0.200;2022-11-25T03:57:14;101015.34;;;10.63;75.40
35910;BME280;22004;49.120;-0.200;2022-11-25T03:59:39;101019.28;;;10.44;76.45
35910;BME280;22004;49.120;-0.200;2022-11-25T04:02:04;101027.19;;;10.21;76.05
35910;BME280;22004;49.120;-0.200;2022-11-25T04:04:30;101025.75;;;10.66;76.08
35910;BME280;22004;49.120;-0.200;2022-11-25T04:06:55;101023.41;;;10.63;74.36
35910;BME280;22004;49.120;-0.200;2022-11-25T04:09:20;101034.41;;;10.37;75.13
35910;BME280;22004;49.120;-0.200;2022-11-25T04:11:46;101028.44;;;10.66;75.94
35910;BME280;22004;49.120;-0.200;2022-11-25T04:14:30;101037.22;;;10.43;76.49
35910;BME280;22004;49.120;-0.200;2022-11-25T04:16:55;101044.63;;;10.33;74.36
35910;BME280;22004;49.120;-0.200;2022-11-25T04:19:21;101042.50;;;10.68;75.44
35910;BME280;22004;49.120;-0.200;2022-11-25T04:21:46;101049.72;;;10.75;75.00
35910;BME280;22004;49.120;-0.200;2022-11-25T04:24:11;101056.38;;;10.40;74.17
35910;BME280;22004;49.120;-0.200;2022-11-25T04:26:37;101066.59;;;10.45;76.44
35910;BME280;22004;49.120;-0.200;2022-11-25T04:29:02;101066.75;;;10.43;75.87
35910;BME280;22004;49.120;-0.200;2022-11-25T04:31:28;101076.03;;;10.80;75.00
35910;BME280;22004;49.120;-0.200;2022-11-25T04:33:53;101066.59;;;10.84;74.73
35910;BME280;22004;49.120;-0.200;2022-11-25T04:36:19;101075.44;;;10.61;74.65
35910;BME280;22004;49.120;-0.200;2022-11-25T04:38:44;101084.94;;;10.80;75.80
35910;BME280;22004;49.120;-0.200;2022-11-25T04:41:09;101091.28;;;10.40;75.63
35910;BME280;22004;49.120;-0.200;2022-11-25T04:43:36;101093.38;;;10.61;75.87
35910;BME280;22004;49.120;-0.200;2022-11-25T04:46:01;101104.38;;;10.27;75.80
35910;BME280;22004;49.120;-0.200;2022-11-25T04:48:27;101105.69;;;10.06;75.79
35910;BME280;22004;49.120;-0.200;2022-11-25T04:50:53;101100.81;;;10.18;76.33
35910;BME280;22004;49.120;-0.200;2022-11-25T04:53:19;101102.00;;;10.24;75.16
35910;BME280;22004;49.120;-0.200;2022-11-25T04:55:44;101100.44;;;10.62;75.82
35910;BME280;22004;49.120;-0.200;2022-11-25T04:58:10;101101.97;;;10.48;75.46
35910;BME280;22004;49.120;-0.200;2022-11-25T05:00:36;101103.13;;;10.62;75.68
35910;BME280;22004;49.120;-0.200;2022-11-25T05:03:01;101110.91;;;10.32;76.25
35910;BME280;22004;49.120;-0.200;2022-11-25T05:05:27;101110.91;;;10.00;75.06
35910;BME280;22004;49.120;-0.200;2022-11-25T05:07:52;101102.34;;;10.21;75.49
35910;BME280;22004;49.120;-0.200;2022-11-25T05:10:17;101118.78;;;10.26;75.41
35910;BME280;22004;49.120;-0.200;2022-11-25T05:12:43;101113.22;;;10.03;75.01
35910;BME280;22004;49.120;-0.200;2022-11-25T05:15:08;101117.09;;;10.08;75.46
35910;BME280;22004;49.120;-0.200;2022-11-25T05:17:34;101129.00;;;9.90;76.61
35910;BME280;22004;49.120;-0.200;2022-11-25T05:19:59;101129.31;;;9.87;73.57
35910;BME280;22004;49.120;-0.200;2022-11-25T05:22:27;101135.03;;;10.16;76.24
35910;BME280;22004;49.120;-0.200;2022-11-25T05:24:53;101145.75;;;10.16;75.83
35910;BME280;22004;49.120;-0.200;2022-11-25T05:27:19;101151.31;;;10.15;77.10
35910;BME280;22004;49.120;-0.200;2022-11-25T05:29:45;101149.59;;;9.89;77.39
35910;BME280;22004;49.120;-0.200;2022-11-25T05:32:10;101142.38;;;9.65;76.53
35910;BME280;22004;49.120;-0.200;2022-11-25T05:34:36;101143.25;;;10.06;74.13
35910;BME280;22004;49.120;-0.200;2022-11-25T05:37:02;101149.41;;;9.74;76.15
35910;BME280;22004;49.120;-0.200;2022-11-25T05:39:27;101147.75;;;10.14;76.40
35910;BME280;22004;49.120;-0.200;2022-11-25T05:41:53;101160.59;;;9.53;76.89
35910;BME280;22004;49.120;-0.200;2022-11-25T05:44:18;101149.09;;;9.94;77.33
35910;BME280;22004;49.120;-0.200;2022-11-25T05:46:44;101158.31;;;9.91;76.03
35910;BME280;22004;49.120;-0.200;2022-11-25T05:49:11;101150.28;;;9.75;76.75
35910;BME280;22004;49.120;-0.200;2022-11-25T05:51:36;101158.78;;;9.62;74.33
35910;BME280;22004;49.120;-0.200;2022-11-25T05:54:02;101159.81;;;9.77;76.94
35910;BME280;22004;49.120;-0.200;2022-11-25T05:56:28;101166.56;;;10.06;74.78
35910;BME280;22004;49.120;-0.200;2022-11-25T05:58:53;101165.22;;;10.18;75.53
35910;BME280;22004;49.120;-0.200;2022-11-25T06:01:19;101173.22;;;9.77;75.96
35910;BME280;22004;49.120;-0.200;2022-11-25T06:03:45;101183.38;;;10.24;76.65
35910;BME280;22004;49.120;-0.200;2022-11-25T06:06:10;101187.69;;;10.01;76.35
35910;BME280;22004;49.120;-0.200;2022-11-25T06:08:37;101188.63;;;9.83;76.97
35910;BME280;22004;49.120;-0.200;2022-11-25T06:11:07;101191.53;;;9.90;74.42
35910;BME280;22004;49.120;-0.200;2022-11-25T06:13:33;101192.03;;;10.18;75.81
35910;BME280;22004;49.120;-0.200;2022-11-25T06:15:59;101200.09;;;10.10;76.48
35910;BME280;22004;49.120;-0.200;2022-11-25T06:18:24;101199.25;;;10.01;75.08
35910;BME280;22004;49.120;-0.200;2022-11-25T06:20:57;101203.50;;;9.62;75.86
35910;BME280;22004;49.120;-0.200;2022-11-25T06:23:23;101205.91;;;9.81;77.13
35910;BME280;22004;49.120;-0.200;2022-11-25T06:25:49;101204.47;;;9.52;77.69
35910;BME280;22004;49.120;-0.200;2022-11-25T06:28:14;101209.47;;;10.06;76.94
35910;BME280;22004;49.120;-0.200;2022-11-25T06:30:39;101209.13;;;9.84;76.98
35910;BME280;22004;49.120;-0.200;2022-11-25T06:33:05;101217.25;;;9.24;75.88
35910;BME280;22004;49.120;-0.200;2022-11-25T06:35:30;101206.91;;;9.80;76.52
35910;BME280;22004;49.120;-0.200;2022-11-25T06:37:57;101209.94;;;9.93;77.91
35910;BME280;22004;49.120;-0.200;2022-11-25T06:40:22;101219.97;;;9.32;77.54
35910;BME280;22004;49.120;-0.200;2022-11-25T06:42:48;101223.31;;;8.74;76.72
35910;BME280;22004;49.120;-0.200;2022-11-25T06:45:13;101219.50;;;9.88;76.83
35910;BME280;22004;49.120;-0.200;2022-11-25T06:47:38;101227.88;;;9.84;75.46
35910;BME280;22004;49.120;-0.200;2022-11-25T06:50:04;101230.94;;;9.47;77.47
35910;BME280;22004;49.120;-0.200;2022-11-25T06:52:30;101234.50;;;9.56;77.39
35910;BME280;22004;49.120;-0.200;2022-11-25T06:54:56;101225.00;;;9.78;77.79
35910;BME280;22004;49.120;-0.200;2022-11-25T06:57:21;101230.00;;;9.73;74.13
35910;BME280;22004;49.120;-0.200;2022-11-25T06:59:47;101238.84;;;10.24;75.66
35910;BME280;22004;49.120;-0.200;2022-11-25T07:02:12;101242.69;;;10.05;76.86
35910;BME280;22004;49.120;-0.200;2022-11-25T07:04:38;101242.28;;;9.83;76.03
35910;BME280;22004;49.120;-0.200;2022-11-25T07:07:04;101250.59;;;10.15;75.03
35910;BME280;22004;49.120;-0.200;2022-11-25T07:09:30;101263.19;;;9.72;76.36
35910;BME280;22004;49.120;-0.200;2022-11-25T07:11:55;101271.03;;;10.16;76.38
35910;BME280;22004;49.120;-0.200;2022-11-25T07:14:20;101279.88;;;10.08;76.72
35910;BME280;22004;49.120;-0.200;2022-11-25T07:16:46;101277.91;;;10.18;75.73
35910;BME280;22004;49.120;-0.200;2022-11-25T07:19:14;101291.81;;;10.14;76.69
35910;BME280;22004;49.120;-0.200;2022-11-25T07:21:41;101290.19;;;9.78;74.73
35910;BME280;22004;49.120;-0.200;2022-11-25T07:24:09;101304.31;;;9.89;74.34
35910;BME280;22004;49.120;-0.200;2022-11-25T07:26:36;101313.13;;;9.39;77.69
35910;BME280;22004;49.120;-0.200;2022-11-25T07:29:12;101322.47;;;9.95;76.63
35910;BME280;22004;49.120;-0.200;2022-11-25T07:31:40;101317.50;;;9.74;76.80
35910;BME280;22004;49.120;-0.200;2022-11-25T07:34:18;101332.34;;;10.02;77.08
35910;BME280;22004;49.120;-0.200;2022-11-25T07:36:48;101344.78;;;9.69;77.95
35910;BME280;22004;49.120;-0.200;2022-11-25T07:39:19;101347.91;;;9.91;75.99
35910;BME280;22004;49.120;-0.200;2022-11-25T07:41:47;101350.69;;;10.23;75.58
35910;BME280;22004;49.120;-0.200;2022-11-25T07:44:13;101351.44;;;9.91;77.68
35910;BME280;22004;49.120;-0.200;2022-11-25T07:46:41;101361.00;;;10.36;76.44
35910;BME280;22004;49.120;-0.200;2022-11-25T07:49:11;101371.59;;;10.03;76.01
35910;BME280;22004;49.120;-0.200;2022-11-25T07:54:06;101377.09;;;10.36;76.11
35910;BME280;22004;49.120;-0.200;2022-11-25T07:56:33;101389.53;;;10.37;76.69
35910;BME280;22004;49.120;-0.200;2022-11-25T07:58:59;101388.59;;;10.71;74.81
35910;BME280;22004;49.120;-0.200;2022-11-25T08:01:24;101403.19;;;10.60;75.68
35910;BME280;22004;49.120;-0.200;2022-11-25T08:03:50;101409.19;;;10.46;76.05
35910;BME280;22004;49.120;-0.200;2022-11-25T08:06:21;101409.34;;;10.44;74.05
35910;BME280;22004;49.120;-0.200;2022-11-25T08:08:47;101412.91;;;10.61;74.24
35910;BME280;22004;49.120;-0.200;2022-11-25T08:11:18;101418.78;;;10.73;74.98
35910;BME280;22004;49.120;-0.200;2022-11-25T08:13:44;101420.50;;;10.90;74.38
35910;BME280;22004;49.120;-0.200;2022-11-25T08:16:15;101434.78;;;10.91;74.33
35910;BME280;22004;49.120;-0.200;2022-11-25T08:18:41;101432.94;;;11.07;73.97
35910;BME280;22004;49.120;-0.200;2022-11-25T08:21:09;101447.41;;;11.06;73.96
35910;BME280;22004;49.120;-0.200;2022-11-25T08:23:36;101446.41;;;11.16;73.55
35910;BME280;22004;49.120;-0.200;2022-11-25T08:26:07;101444.06;;;11.21;73.66
35910;BME280;22004;49.120;-0.200;2022-11-25T08:28:33;101442.19;;;11.13;73.64
35910;BME280;22004;49.120;-0.200;2022-11-25T08:31:18;101464.84;;;11.19;73.79
35910;BME280;22004;49.120;-0.200;2022-11-25T08:33:44;101464.03;;;11.26;73.11
35910;BME280;22004;49.120;-0.200;2022-11-25T08:36:10;101457.31;;;11.14;74.00
35910;BME280;22004;49.120;-0.200;2022-11-25T08:38:37;101466.19;;;10.98;73.57
35910;BME280;22004;49.120;-0.200;2022-11-25T08:41:07;101464.38;;;11.31;73.32
35910;BME280;22004;49.120;-0.200;2022-11-25T08:43:32;101457.81;;;11.42;72.48
35910;BME280;22004;49.120;-0.200;2022-11-25T08:45:58;101474.63;;;11.52;72.81
35910;BME280;22004;49.120;-0.200;2022-11-25T08:48:23;101478.31;;;11.51;72.36
35910;BME280;22004;49.120;-0.200;2022-11-25T08:50:51;101483.69;;;11.76;71.86
35910;BME280;22004;49.120;-0.200;2022-11-25T08:53:17;101482.00;;;11.58;72.41
35910;BME280;22004;49.120;-0.200;2022-11-25T08:55:43;101477.44;;;12.00;71.42
35910;BME280;22004;49.120;-0.200;2022-11-25T08:58:09;101479.66;;;11.31;72.55
35910;BME280;22004;49.120;-0.200;2022-11-25T09:00:36;101489.91;;;11.35;73.71
35910;BME280;22004;49.120;-0.200;2022-11-25T09:03:02;101500.81;;;11.26;74.27
35910;BME280;22004;49.120;-0.200;2022-11-25T09:05:28;101508.38;;;11.38;73.77
35910;BME280;22004;49.120;-0.200;2022-11-25T09:08:02;101511.09;;;11.30;74.00
35910;BME280;22004;49.120;-0.200;2022-11-25T09:10:29;101521.84;;;11.55;73.62
35910;BME280;22004;49.120;-0.200;2022-11-25T09:12:55;101532.75;;;11.37;73.89
35910;BME280;22004;49.120;-0.200;2022-11-25T09:15:20;101529.34;;;11.19;74.56
35910;BME280;22004;49.120;-0.200;2022-11-25T09:17:45;101539.00;;;11.46;73.65
35910;BME280;22004;49.120;-0.200;2022-11-25T09:20:11;101545.25;;;10.87;75.39
35910;BME280;22004;49.120;-0.200;2022-11-25T09:22:37;101559.13;;;11.25;74.41
35910;BME280;22004;49.120;-0.200;2022-11-25T09:25:02;101560.31;;;11.31;74.07
35910;BME280;22004;49.120;-0.200;2022-11-25T09:27:29;101566.88;;;11.36;74.68
35910;BME280;22004;49.120;-0.200;2022-11-25T09:29:55;101571.09;;;11.39;73.98
35910;BME280;22004;49.120;-0.200;2022-11-25T09:32:20;101565.47;;;11.16;74.72
35910;BME280;22004;49.120;-0.200;2022-11-25T09:34:46;101574.25;;;11.26;74.67
35910;BME280;22004;49.120;-0.200;2022-11-25T09:37:11;101569.72;;;11.27;74.58
35910;BME280;22004;49.120;-0.200;2022-11-25T09:39:36;101577.75;;;11.19;75.49
35910;BME280;22004;49.120;-0.200;2022-11-25T09:51:23;101596.06;;;11.15;75.36
35910;BME280;22004;49.120;-0.200;2022-11-25T09:53:54;101608.06;;;11.53;73.95
35910;BME280;22004;49.120;-0.200;2022-11-25T09:56:34;101610.72;;;11.29;74.97
35910;BME280;22004;49.120;-0.200;2022-11-25T09:59:11;101612.94;;;11.50;74.17
35910;BME280;22004;49.120;-0.200;2022-11-25T10:01:49;101621.84;;;11.58;73.80
35910;BME280;22004;49.120;-0.200;2022-11-25T10:04:25;101628.78;;;11.69;73.38
35910;BME280;22004;49.120;-0.200;2022-11-25T10:06:55;101634.78;;;11.47;74.34
35910;BME280;22004;49.120;-0.200;2022-11-25T10:09:25;101636.50;;;11.64;73.85
35910;BME280;22004;49.120;-0.200;2022-11-25T10:11:58;101647.59;;;11.61;74.40
35910;BME280;22004;49.120;-0.200;2022-11-25T10:14:34;101646.81;;;11.93;73.15
35910;BME280;22004;49.120;-0.200;2022-11-25T10:22:22;101660.44;;;12.16;72.50
35910;BME280;22004;49.120;-0.200;2022-11-25T10:24:50;101667.50;;;12.01;73.38
35910;BME280;22004;49.120;-0.200;2022-11-25T10:27:24;101680.56;;;11.71;73.94
35910;BME280;22004;49.120;-0.200;2022-11-25T10:30:00;101681.50;;;11.46;74.86
35910;BME280;22004;49.120;-0.200;2022-11-25T10:32:32;101687.38;;;11.07;76.66
35910;BME280;22004;49.120;-0.200;2022-11-25T10:35:05;101692.41;;;11.02;76.32
35910;BME280;22004;49.120;-0.200;2022-11-25T10:37:38;101689.88;;;11.34;75.86
35910;BME280;22004;49.120;-0.200;2022-11-25T10:40:05;101697.00;;;11.60;74.57
35910;BME280;22004;49.120;-0.200;2022-11-25T10:42:31;101700.13;;;11.89;73.46
35910;BME280;22004;49.120;-0.200;2022-11-25T10:44:56;101707.16;;;11.82;73.94
35910;BME280;22004;49.120;-0.200;2022-11-25T10:52:29;101711.97;;;11.54;75.80
35910;BME280;22004;49.120;-0.200;2022-11-25T10:57:33;101716.78;;;11.85;74.25
35910;BME280;22004;49.120;-0.200;2022-11-25T11:00:00;101717.94;;;11.82;74.15
35910;BME280;22004;49.120;-0.200;2022-11-25T11:02:28;101726.06;;;11.99;73.98
35910;BME280;22004;49.120;-0.200;2022-11-25T11:05:24;101716.59;;;11.86;74.83
35910;BME280;22004;49.120;-0.200;2022-11-25T11:08:27;101721.25;;;11.76;75.45
35910;BME280;22004;49.120;-0.200;2022-11-25T11:11:16;101719.97;;;11.46;76.05
35910;BME280;22004;49.120;-0.200;2022-11-25T11:13:43;101723.50;;;11.97;74.04
35910;BME280;22004;49.120;-0.200;2022-11-25T11:16:28;101727.22;;;12.12;73.26
35910;BME280;22004;49.120;-0.200;2022-11-25T11:18:55;101736.34;;;12.20;72.94
35910;BME280;22004;49.120;-0.200;2022-11-25T11:21:32;101745.72;;;12.07;74.10
35910;BME280;22004;49.120;-0.200;2022-11-25T11:24:00;101752.31;;;12.21;73.91
35910;BME280;22004;49.120;-0.200;2022-11-25T11:26:30;101747.72;;;11.97;74.74
35910;BME280;22004;49.120;-0.200;2022-11-25T11:29:12;101758.88;;;12.10;74.66
35910;BME280;22004;49.120;-0.200;2022-11-25T11:31:42;101758.88;;;12.10;74.11
35910;BME280;22004;49.120;-0.200;2022-11-25T11:37:16;101757.88;;;12.20;73.32
35910;BME280;22004;49.120;-0.200;2022-11-25T11:40:11;101752.97;;;12.15;73.42
35910;BME280;22004;49.120;-0.200;2022-11-25T11:46:01;101758.34;;;12.23;73.30
35910;BME280;22004;49.120;-0.200;2022-11-25T11:48:44;101759.22;;;12.24;73.01
35910;BME280;22004;49.120;-0.200;2022-11-25T11:51:21;101756.19;;;12.27;73.12
35910;BME280;22004;49.120;-0.200;2022-11-25T11:53:54;101761.22;;;12.22;72.83
35910;BME280;22004;49.120;-0.200;2022-11-25T11:59:34;101760.88;;;12.16;73.55
35910;BME280;22004;49.120;-0.200;2022-11-25T12:04:30;101761.06;;;12.23;72.44
35910;BME280;22004;49.120;-0.200;2022-11-25T12:09:38;101761.22;;;12.38;72.52
35910;BME280;22004;49.120;-0.200;2022-11-25T12:12:13;101762.75;;;12.40;72.51
35910;BME280;22004;49.120;-0.200;2022-11-25T12:14:45;101766.78;;;12.53;71.51
35910;BME280;22004;49.120;-0.200;2022-11-25T12:17:18;101783.66;;;12.55;71.99
35910;BME280;22004;49.120;-0.200;2022-11-25T12:22:31;101773.38;;;12.34;72.39
35910;BME280;22004;49.120;-0.200;2022-11-25T12:25:07;101778.25;;;12.47;71.82
35910;BME280;22004;49.120;-0.200;2022-11-25T12:27:39;101779.91;;;12.48;72.88
35910;BME280;22004;49.120;-0.200;2022-11-25T12:30:14;101785.31;;;12.48;72.09
35910;BME280;22004;49.120;-0.200;2022-11-25T12:33:01;101796.78;;;12.33;72.10
35910;BME280;22004;49.120;-0.200;2022-11-25T12:35:50;101804.84;;;12.33;72.13
35910;BME280;22004;49.120;-0.200;2022-11-25T12:38:24;101814.78;;;12.41;71.42
35910;BME280;22004;49.120;-0.200;2022-11-25T12:41:00;101819.66;;;12.46;71.22
35910;BME280;22004;49.120;-0.200;2022-11-25T12:46:23;101843.91;;;12.62;70.98
35910;BME280;22004;49.120;-0.200;2022-11-25T12:48:51;101839.84;;;12.33;70.50
35910;BME280;22004;49.120;-0.200;2022-11-25T12:51:43;101846.59;;;12.46;70.26
35910;BME280;22004;49.120;-0.200;2022-11-25T13:00:12;101862.06;;;12.35;71.19
35910;BME280;22004;49.120;-0.200;2022-11-25T13:08:22;101869.47;;;12.33;70.69
35910;BME280;22004;49.120;-0.200;2022-11-25T13:13:29;101874.50;;;12.36;71.14
35910;BME280;22004;49.120;-0.200;2022-11-25T13:15:58;101868.94;;;12.38;70.73
35910;BME280;22004;49.120;-0.200;2022-11-25T13:18:28;101869.28;;;12.27;71.43
35910;BME280;22004;49.120;-0.200;2022-11-25T13:20:55;101870.25;;;12.18;70.75
35910;BME280;22004;49.120;-0.200;2022-11-25T13:26:36;101881.88;;;12.26;71.31
35910;BME280;22004;49.120;-0.200;2022-11-25T13:32:11;101892.53;;;12.36;70.43
35910;BME280;22004;49.120;-0.200;2022-11-25T13:34:49;101895.72;;;12.31;70.62
35910;BME280;22004;49.120;-0.200;2022-11-25T13:37:34;101902.06;;;12.22;70.18
35910;BME280;22004;49.120;-0.200;2022-11-25T13:40:33;101908.16;;;12.24;70.66
35910;BME280;22004;49.120;-0.200;2022-11-25T13:43:00;101904.63;;;12.24;71.15
35910;BME280;22004;49.120;-0.200;2022-11-25T13:47:54;101922.97;;;12.28;71.28
35910;BME280;22004;49.120;-0.200;2022-11-25T13:50:28;101931.69;;;12.22;70.59
35910;BME280;22004;49.120;-0.200;2022-11-25T13:53:07;101924.75;;;12.11;71.34
35910;BME280;22004;49.120;-0.200;2022-11-25T13:55:42;101935.31;;;12.05;71.16
35910;BME280;22004;49.120;-0.200;2022-11-25T14:06:10;101935.63;;;11.94;72.69
35910;BME280;22004;49.120;-0.200;2022-11-25T14:09:03;101939.28;;;11.93;71.69